BLB weather

Leo Airport
Guaymas, Sonora, Mexico

Public forecast

Using degrees Celsius for public forecast. Weather courtesy of forecast.io.

Closest aviation weather report (METAR) to Leo Airport

Closest report is General José María Yáñez International Airport, 6.1 nm (11.4 km) E. Retrieved 2020/01/19 23:43 UTC (6 minutes ago):

MMGM 192343Z 24010KT 10SM SKC 22/16 A2993

Closest aviation forecast (TAF) to Leo Airport

Closest forecast is General José María Yáñez International Airport, 6.1 nm (11.4 km) E. Retrieved 2020/01/19 18:15 UTC (6 hours ago):

TAF MMGM 191613Z 1918/2018 34005KT P6SM SKC BECMG 1920/1921 34012KT FM200200 02005KT P6SM SCT220 BECMG 2005/2006 00000KT FM201200 32005KT P6SM BKN220